Time;durP1;ratioP1;P1;durP2;ratioP2;P2;SDS_P1;SDS_P2;PMS_P1;PMS_P2;Temp;Humidity;BMP_temperature;BMP_pressure;BME280_temperature;BME280_humidity;BME280_pressure;Samples;Min_cycle;Max_cycle;Signal;HPM_P1;HPM_P2
2022/06/13 00:01:27;;;;;;;14.35;9.58;;;;;;;20.35;66.65;99288.62;1737253;82;21001;-67
2022/06/13 00:03:56;;;;;;;28.02;15.35;;;;;;;20.25;66.68;99286.77;1739904;81;21524;-67
2022/06/13 00:06:22;;;;;;;26.80;15.60;;;;;;;20.15;66.73;99281.33;1759078;81;21596;-67
2022/06/13 00:08:49;;;;;;;26.27;14.30;;;;;;;20.10;66.79;99276.69;1757974;81;21299;-67
2022/06/13 00:11:18;;;;;;;24.52;13.83;;;;;;;20.00;66.88;99272.62;1758174;81;21048;-65
2022/06/13 00:13:48;;;;;;;21.33;11.97;;;;;;;19.91;67.17;99271.56;1752239;81;21074;-68
2022/06/13 00:16:15;;;;;;;19.37;11.00;;;;;;;19.86;67.56;99274.14;1723492;81;21068;-67
2022/06/13 00:18:47;;;;;;;21.30;9.13;;;;;;;19.83;67.66;99274.34;1759756;81;21039;-66
2022/06/13 00:21:22;;;;;;;15.75;8.70;;;;;;;19.80;67.79;99270.13;1752314;81;21786;-67
2022/06/13 00:23:50;;;;;;;16.62;9.55;;;;;;;19.77;67.99;99266.71;1753884;81;21090;-68
2022/06/13 00:26:25;;;;;;;12.55;8.60;;;;;;;19.74;68.14;99266.09;1755622;81;21076;-67
2022/06/13 00:28:53;;;;;;;13.15;9.03;;;;;;;19.74;68.15;99268.28;1759240;81;21051;-68
2022/06/13 00:31:19;;;;;;;15.23;8.83;;;;;;;19.76;68.29;99269.28;1759366;81;21118;-66
2022/06/13 00:33:46;;;;;;;13.08;8.58;;;;;;;19.79;68.07;99264.34;1748897;81;21643;-66
2022/06/13 00:36:16;;;;;;;13.00;8.60;;;;;;;19.80;68.02;99262.55;1753897;81;21096;-67
2022/06/13 00:38:43;;;;;;;12.25;7.75;;;;;;;19.82;67.94;99265.73;1759836;81;21035;-66
2022/06/13 00:41:17;;;;;;;12.45;7.75;;;;;;;19.83;67.93;99263.16;1748194;81;21059;-68
2022/06/13 00:43:45;;;;;;;11.97;7.37;;;;;;;19.82;67.87;99271.32;1750379;81;21539;-66
2022/06/13 00:46:25;;;;;;;11.15;7.20;;;;;;;19.81;67.85;99263.33;1759952;81;21338;-68
2022/06/13 00:49:02;;;;;;;15.48;6.87;;;;;;;19.80;67.87;99267.33;1757135;81;21039;-66
2022/06/13 00:51:32;;;;;;;18.20;9.30;;;;;;;19.77;67.91;99263.30;1754220;81;21887;-66
2022/06/13 00:53:59;;;;;;;13.70;8.85;;;;;;;19.72;67.97;99268.47;1748184;81;21524;-69
2022/06/13 00:56:27;;;;;;;17.27;9.23;;;;;;;19.70;68.13;99267.47;1757761;81;21027;-65
2022/06/13 00:59:03;;;;;;;13.95;7.75;;;;;;;19.72;68.36;99261.48;1725083;81;21144;-65
2022/06/13 01:01:33;;;;;;;13.80;8.23;;;;;;;19.77;68.33;99257.71;1724465;81;21062;-66
2022/06/13 01:04:02;;;;;;;14.80;8.35;;;;;;;19.78;68.04;99262.13;1744683;81;21068;-67
2022/06/13 01:06:31;;;;;;;18.07;8.28;;;;;;;19.70;67.82;99257.07;1741010;82;21816;-68
2022/06/13 01:08:58;;;;;;;18.90;8.03;;;;;;;19.61;68.04;99258.02;1721128;82;21001;-68
2022/06/13 01:11:26;;;;;;;30.88;10.93;;;;;;;19.52;68.28;99260.34;1679613;82;21249;-65
2022/06/13 01:14:07;;;;;;;29.02;11.97;;;;;;;19.43;68.56;99255.11;1720336;82;21061;-67
2022/06/13 01:17:20;;;;;;;43.23;17.67;;;;;;;19.36;68.88;99257.25;1726331;82;21008;-67
2022/06/13 01:20:16;;;;;;;47.35;18.05;;;;;;;19.30;69.02;99258.78;1698232;83;20999;-67
2022/06/13 01:23:08;;;;;;;21.97;8.73;;;;;;;19.26;69.34;99263.55;1689241;84;21087;-67
2022/06/13 01:25:46;;;;;;;21.00;11.18;;;;;;;19.17;69.72;99258.28;1686055;84;21044;-67
2022/06/13 01:28:43;;;;;;;18.87;7.90;;;;;;;19.21;69.80;99266.89;1688356;84;21020;-64
2022/06/13 01:31:28;;;;;;;11.83;7.50;;;;;;;19.23;69.90;99265.72;1693316;84;21106;-67
2022/06/13 01:34:17;;;;;;;13.00;7.85;;;;;;;19.28;69.80;99265.34;1679235;85;21021;-68
2022/06/13 01:37:12;;;;;;;14.38;8.13;;;;;;;19.36;69.67;99270.41;1691805;84;21042;-65
2022/06/13 01:40:10;;;;;;;93.17;37.00;;;;;;;19.40;69.67;99269.23;1699298;83;21540;-66
2022/06/13 01:43:06;;;;;;;46.02;19.65;;;;;;;19.42;69.61;99266.05;1683639;84;21068;-67
2022/06/13 01:45:56;;;;;;;36.35;16.27;;;;;;;19.41;69.59;99268.06;1687145;84;21071;-67
2022/06/13 01:49:20;;;;;;;25.75;12.55;;;;;;;19.37;69.50;99263.62;1660502;86;21037;-66
2022/06/13 01:52:01;;;;;;;22.15;12.50;;;;;;;19.32;69.79;99261.41;1688251;84;21067;-68
2022/06/13 01:54:51;;;;;;;14.65;7.95;;;;;;;19.34;69.76;99265.20;1679588;84;21168;-67
2022/06/13 01:57:38;;;;;;;19.67;10.25;;;;;;;19.33;69.82;99264.98;1697450;83;21005;-65
2022/06/13 02:00:25;;;;;;;36.48;14.98;;;;;;;19.27;69.78;99266.53;1684856;84;21555;-66
2022/06/13 02:03:00;;;;;;;43.90;21.27;;;;;;;19.15;69.87;99268.44;1677277;84;21032;-64
2022/06/13 02:05:47;;;;;;;23.65;12.05;;;;;;;19.09;70.11;99262.95;1670835;84;21080;-68
2022/06/13 02:08:23;;;;;;;38.98;16.62;;;;;;;19.01;70.38;99262.67;1681986;84;21024;-64
2022/06/13 02:11:06;;;;;;;19.55;9.10;;;;;;;18.97;70.65;99268.22;1683553;84;21040;-67
2022/06/13 02:14:01;;;;;;;14.73;6.67;;;;;;;18.94;70.99;99263.41;1682510;84;21004;-66
2022/06/13 02:16:46;;;;;;;9.38;6.58;;;;;;;18.95;71.13;99267.21;1691539;83;21044;-65
2022/06/13 02:19:35;;;;;;;15.83;7.05;;;;;;;19.01;71.07;99267.67;1729618;82;20993;-67
2022/06/13 02:22:12;;;;;;;10.75;6.62;;;;;;;19.08;70.91;99273.92;1687190;84;21117;-66
2022/06/13 02:24:43;;;;;;;9.78;6.67;;;;;;;19.06;70.93;99272.09;1676542;84;22102;-68
2022/06/13 02:27:11;;;;;;;9.75;5.85;;;;;;;19.08;71.03;99272.52;1686363;84;21105;-68
2022/06/13 02:29:55;;;;;;;10.88;7.08;;;;;;;19.14;70.94;99269.61;1699459;83;21028;-68
2022/06/13 02:32:24;;;;;;;;;;;;;;;19.21;70.76;99272.47;1727741;82;21020;-66
2022/06/13 02:34:59;;;;;;;13.88;8.23;;;;;;;19.26;70.62;99264.94;1731108;82;21060;-66
2022/06/13 02:37:39;;;;;;;21.35;10.60;;;;;;;19.25;70.73;99263.32;1681740;85;21068;-66
2022/06/13 02:40:28;;;;;;;20.65;11.28;;;;;;;19.26;70.55;99268.52;1726568;82;21040;-69
2022/06/13 02:43:20;;;;;;;25.35;12.47;;;;;;;19.31;70.56;99267.38;1724809;82;21021;-67
2022/06/13 02:45:51;;;;;;;29.98;14.35;;;;;;;19.36;70.33;99267.02;1725963;82;21096;-66
2022/06/13 02:48:38;;;;;;;29.70;14.90;;;;;;;19.37;70.41;99276.19;1685474;85;21100;-66
2022/06/13 02:51:30;;;;;;;25.82;13.75;;;;;;;19.38;70.39;99270.83;1728079;82;21568;-69
2022/06/13 02:54:08;;;;;;;25.23;13.88;;;;;;;19.39;70.39;99271.02;1730695;81;21055;-68
2022/06/13 02:57:27;;;;;;;25.00;13.10;;;;;;;19.40;70.52;99270.63;1730926;82;21013;-67
2022/06/13 03:00:20;;;;;;;17.05;9.58;;;;;;;19.43;70.48;99265.66;1670524;85;21095;-68
2022/06/13 03:03:00;;;;;;;22.25;11.12;;;;;;;19.45;70.68;99280.64;1616759;87;21312;-66
2022/06/13 03:06:10;;;;;;;19.40;8.85;;;;;;;19.36;71.13;99278.20;1720983;81;21444;-68
2022/06/13 03:09:03;;;;;;;16.93;9.60;;;;;;;19.37;71.48;99283.17;1758827;81;21111;-67
2022/06/13 03:11:56;;;;;;;14.18;9.10;;;;;;;19.40;71.86;99284.59;1750490;81;21011;-68
2022/06/13 03:14:46;;;;;;;19.60;9.00;;;;;;;19.46;71.96;99285.84;1749425;81;21055;-66
2022/06/13 03:17:33;;;;;;;16.57;8.53;;;;;;;19.52;72.05;99284.89;1759594;80;22084;-67
2022/06/13 03:20:19;;;;;;;15.48;7.90;;;;;;;19.57;72.18;99284.53;1751599;81;21047;-67
2022/06/13 03:23:12;;;;;;;13.28;7.80;;;;;;;19.53;72.35;99289.89;1721381;81;20996;-68
2022/06/13 03:25:51;;;;;;;14.18;7.87;;;;;;;19.49;72.84;99287.07;1736491;81;21028;-68
2022/06/13 03:28:34;;;;;;;32.48;9.45;;;;;;;19.42;73.37;99286.42;1711174;81;21008;-68
2022/06/13 03:31:13;;;;;;;31.42;7.92;;;;;;;19.45;73.73;99287.03;1742359;81;21707;-66
2022/06/13 03:33:43;;;;;;;25.65;8.78;;;;;;;19.55;73.83;99292.49;1743731;81;21040;-67
2022/06/13 03:36:23;;;;;;;10.65;6.33;;;;;;;19.67;73.79;99287.81;1755163;81;21067;-68
2022/06/13 03:39:13;;;;;;;9.75;6.40;;;;;;;19.77;73.77;99291.86;1752534;81;21071;-67
2022/06/13 03:41:49;;;;;;;14.13;6.60;;;;;;;19.86;73.68;99294.32;1757056;81;21532;-66
2022/06/13 03:44:32;;;;;;;7.78;5.87;;;;;;;19.88;73.67;99288.53;1751472;81;21724;-67
2022/06/13 03:47:10;;;;;;;12.35;7.47;;;;;;;19.87;73.32;99295.91;1754619;81;21083;-66
2022/06/13 03:49:47;;;;;;;13.05;6.50;;;;;;;19.92;73.35;99296.36;1755217;81;21021;-68
2022/06/13 03:52:14;;;;;;;14.15;6.95;;;;;;;19.99;73.26;99291.41;1749481;81;21667;-67
2022/06/13 03:54:57;;;;;;;18.92;6.62;;;;;;;20.01;73.18;99292.41;1754803;81;21575;-64
2022/06/13 03:57:38;;;;;;;11.75;6.95;;;;;;;20.04;72.93;99291.66;1747872;81;22093;-69
2022/06/13 04:00:19;;;;;;;14.43;8.68;;;;;;;20.05;72.94;99291.27;1749461;81;21059;-67
2022/06/13 04:02:47;;;;;;;8.33;6.97;;;;;;;20.03;73.13;99299.20;1750775;81;21004;-68
2022/06/13 04:05:32;;;;;;;9.58;6.80;;;;;;;20.06;73.22;99297.05;1748719;81;21031;-67
2022/06/13 04:07:58;;;;;;;14.50;6.65;;;;;;;20.08;73.27;99302.87;1759234;81;21051;-67
2022/06/13 04:10:25;;;;;;;11.63;6.10;;;;;;;20.09;73.51;99306.67;1741228;81;21492;-68
2022/06/13 04:13:21;;;;;;;20.97;10.13;;;;;;;20.18;73.63;99308.50;1749925;81;21591;-68
2022/06/13 04:16:09;;;;;;;25.65;11.12;;;;;;;20.22;73.61;99310.52;1753022;81;21015;-67
2022/06/13 04:18:56;;;;;;;21.80;10.13;;;;;;;20.23;73.44;99312.13;1758238;81;20985;-67
2022/06/13 04:22:08;;;;;;;21.80;10.78;;;;;;;20.30;73.60;99311.56;1755804;81;21008;-69
2022/06/13 04:24:57;;;;;;;14.53;9.23;;;;;;;20.33;73.40;99315.59;1735934;81;22137;-66
2022/06/13 04:27:47;;;;;;;9.63;7.10;;;;;;;20.30;73.28;99317.16;1755008;81;20993;-68
2022/06/13 04:30:23;;;;;;;8.98;6.97;;;;;;;20.35;73.71;99312.39;1756202;81;21011;-66
2022/06/13 04:33:08;;;;;;;15.20;8.58;;;;;;;20.44;73.50;99314.22;1751069;81;21517;-67
2022/06/13 04:35:34;;;;;;;12.50;7.37;;;;;;;20.51;73.32;99312.86;1753917;81;21058;-66
2022/06/13 04:38:03;;;;;;;16.07;8.48;;;;;;;20.56;73.33;99308.88;1755041;81;21132;-67
2022/06/13 04:40:30;;;;;;;123.72;48.78;;;;;;;20.58;73.11;99314.88;1738809;81;21470;-66
2022/06/13 04:42:57;;;;;;;18.95;11.35;;;;;;;20.61;73.09;99311.30;1731703;81;21014;-67
2022/06/13 04:45:27;;;;;;;26.65;14.65;;;;;;;20.69;73.20;99309.34;1758532;81;21012;-68
2022/06/13 04:47:56;;;;;;;28.70;14.85;;;;;;;20.78;73.32;99310.34;1758230;81;20988;-66
2022/06/13 04:50:39;;;;;;;12.10;7.33;;;;;;;20.88;73.10;99305.38;1729724;81;21230;-67
2022/06/13 04:53:08;;;;;;;10.72;6.05;;;;;;;20.98;72.67;99303.03;1727440;81;21091;-64
2022/06/13 04:55:43;;;;;;;15.75;8.35;;;;;;;21.07;72.74;99304.84;1719664;81;21102;-68
2022/06/13 04:58:38;;;;;;;10.45;5.60;;;;;;;21.16;72.34;99309.47;1751473;81;21681;-66
2022/06/13 05:01:16;;;;;;;6.83;5.58;;;;;;;21.23;71.44;99303.66;1752964;81;21087;-66
2022/06/13 05:03:43;;;;;;;19.30;10.00;;;;;;;21.27;71.11;99307.28;1758018;81;21256;-66
2022/06/13 05:06:30;;;;;;;21.05;10.32;;;;;;;21.34;70.70;99305.09;1750722;81;21043;-67
2022/06/13 05:09:01;;;;;;;15.78;8.88;;;;;;;21.42;70.04;99310.08;1753053;81;21094;-67
2022/06/13 05:11:32;;;;;;;8.25;5.70;;;;;;;21.46;69.81;99312.30;1765493;81;21008;-66
2022/06/13 05:14:05;;;;;;;17.42;9.38;;;;;;;21.52;69.72;99314.30;1759514;81;21035;-64
2022/06/13 05:17:26;;;;;;;9.18;5.95;;;;;;;21.58;69.18;99311.88;1755616;81;21199;-68
2022/06/13 05:20:30;;;;;;;15.10;6.90;;;;;;;21.68;68.86;99322.09;1756768;81;21032;-67
2022/06/13 05:23:18;;;;;;;13.18;5.37;;;;;;;21.72;68.18;99319.48;1738814;81;21592;-68
2022/06/13 05:25:54;;;;;;;17.07;8.95;;;;;;;21.77;67.76;99319.67;1738805;81;21015;-68
2022/06/13 05:28:23;;;;;;;9.93;5.92;;;;;;;21.79;67.60;99309.48;1740134;81;21164;-67
2022/06/13 05:30:52;;;;;;;13.40;5.90;;;;;;;21.90;67.69;99318.70;1738370;81;21982;-67
2022/06/13 05:33:22;;;;;;;8.35;5.60;;;;;;;22.00;67.70;99316.48;1753636;81;21611;-68
2022/06/13 05:35:52;;;;;;;8.40;4.70;;;;;;;22.10;67.22;99319.06;1755971;81;20998;-67
2022/06/13 05:38:32;;;;;;;17.05;8.33;;;;;;;22.20;66.65;99319.42;1762053;81;21032;-68
2022/06/13 05:40:58;;;;;;;11.28;6.92;;;;;;;22.26;66.42;99322.03;1759055;81;21020;-65
2022/06/13 05:43:24;;;;;;;13.38;5.60;;;;;;;22.36;66.22;99321.79;1756595;81;21130;-67
2022/06/13 05:45:52;;;;;;;7.05;4.28;;;;;;;22.50;65.58;99327.96;1749673;81;21078;-67
2022/06/13 05:48:21;;;;;;;9.85;5.15;;;;;;;22.56;64.13;99330.53;1754512;81;21111;-68
2022/06/13 05:50:49;;;;;;;15.28;7.95;;;;;;;22.53;63.50;99332.75;1714220;81;21024;-66
2022/06/13 05:53:20;;;;;;;14.73;8.80;;;;;;;22.47;63.72;99325.34;1739762;81;21063;-66
2022/06/13 05:55:46;;;;;;;17.05;7.55;;;;;;;22.53;63.96;99327.14;1746899;81;21248;-65
2022/06/13 05:58:14;;;;;;;8.40;5.40;;;;;;;22.65;63.81;99327.32;1738364;81;21047;-64
2022/06/13 06:00:57;;;;;;;18.80;8.65;;;;;;;22.79;63.48;99323.63;1748086;81;21102;-64
2022/06/13 06:03:25;;;;;;;9.75;5.78;;;;;;;22.92;63.06;99327.38;1756084;81;21019;-64
2022/06/13 06:05:54;;;;;;;10.35;6.37;;;;;;;23.03;63.08;99328.73;1747894;81;21090;-64
2022/06/13 06:08:33;;;;;;;16.20;6.72;;;;;;;23.09;62.58;99326.48;1745010;81;21889;-66
2022/06/13 06:10:59;;;;;;;17.55;6.10;;;;;;;23.07;61.83;99324.68;1754907;81;21044;-67
2022/06/13 06:13:28;;;;;;;9.15;5.08;;;;;;;23.05;62.34;99324.88;1757715;81;21654;-64
2022/06/13 06:15:58;;;;;;;6.22;4.05;;;;;;;23.14;62.15;99321.02;1744473;81;21536;-66
2022/06/13 06:18:25;;;;;;;5.62;3.62;;;;;;;23.24;61.75;99326.38;1757865;81;21571;-66
2022/06/13 06:20:53;;;;;;;16.07;4.30;;;;;;;23.36;60.72;99326.48;1750474;81;21551;-66
2022/06/13 06:23:21;;;;;;;6.97;3.52;;;;;;;23.41;60.62;99323.27;1757397;81;22092;-71
2022/06/13 06:25:48;;;;;;;5.00;4.17;;;;;;;23.48;60.56;99322.41;1752294;81;20984;-65
2022/06/13 06:28:19;;;;;;;6.28;3.40;;;;;;;23.57;60.15;99325.56;1756395;81;21023;-64
2022/06/13 06:30:46;;;;;;;6.72;3.67;;;;;;;23.68;59.97;99323.23;1759106;81;21091;-63
2022/06/13 06:33:14;;;;;;;6.00;3.95;;;;;;;23.76;59.13;99316.96;1752711;81;21000;-66
2022/06/13 06:35:41;;;;;;;4.97;3.60;;;;;;;23.80;59.03;99315.70;1755290;81;21076;-65
2022/06/13 06:38:07;;;;;;;4.08;3.67;;;;;;;23.83;58.85;99314.09;1750755;81;21059;-65
2022/06/13 06:40:37;;;;;;;4.62;3.25;;;;;;;23.81;58.21;99314.50;1746755;81;21072;-66
2022/06/13 06:43:05;;;;;;;5.22;3.10;;;;;;;23.79;57.83;99315.52;1746188;81;21131;-64
2022/06/13 06:45:32;;;;;;;7.20;3.42;;;;;;;23.76;57.90;99314.95;1757245;81;21536;-65
2022/06/13 06:47:58;;;;;;;7.42;3.10;;;;;;;23.78;57.14;99313.13;1727861;81;21441;-64
2022/06/13 06:50:34;;;;;;;4.35;2.87;;;;;;;23.80;57.11;99315.70;1732957;81;21095;-65
2022/06/13 06:53:01;;;;;;;5.90;3.20;;;;;;;23.87;57.59;99318.25;1738919;81;21015;-66
2022/06/13 07:01:04;;;;;;;4.12;2.75;;;;;;;24.20;56.82;99314.53;1753467;81;21039;-65
2022/06/13 07:03:33;;;;;;;5.53;3.30;;;;;;;24.29;55.94;99314.03;1758830;81;21083;-65
2022/06/13 07:06:01;;;;;;;7.97;3.90;;;;;;;24.39;56.16;99314.52;1758576;81;21175;-64
2022/06/13 07:08:28;;;;;;;5.50;3.67;;;;;;;24.51;56.14;99318.80;1753602;81;21023;-64
2022/06/13 07:11:53;;;;;;;6.45;3.40;;;;;;;24.60;55.53;99311.86;1739491;81;21173;-66
2022/06/13 07:13:23;;;;;;;5.40;2.80;;;;;;;24.66;54.53;99317.20;1749393;81;21044;-65
2022/06/13 07:15:50;;;;;;;4.47;3.20;;;;;;;24.63;53.37;99313.83;1729414;81;21090;-68
2022/06/13 07:18:17;;;;;;;3.87;2.85;;;;;;;24.58;52.85;99317.91;1707106;83;21074;-67
2022/06/13 07:20:46;;;;;;;3.42;3.12;;;;;;;24.44;53.56;99316.06;1713974;82;21102;-65
2022/06/13 07:23:12;;;;;;;7.47;3.08;;;;;;;24.35;54.03;99315.76;1705891;84;21265;-64
2022/06/13 07:25:39;;;;;;;3.27;2.98;;;;;;;24.38;55.28;99316.35;1715776;83;21031;-68
2022/06/13 07:28:07;;;;;;;3.85;3.08;;;;;;;24.46;54.88;99313.63;1745443;81;21139;-64
2022/06/13 07:30:34;;;;;;;5.17;2.75;;;;;;;24.57;55.55;99317.70;1748314;81;21107;-64
2022/06/13 07:33:01;;;;;;;4.35;3.08;;;;;;;24.71;55.04;99315.92;1749708;81;21020;-64
2022/06/13 07:35:28;;;;;;;4.35;3.10;;;;;;;24.78;53.69;99321.47;1713474;81;21146;-66
2022/06/13 07:40:45;;;;;;;7.00;3.22;;;;;;;24.95;55.11;99312.61;1695997;84;21052;-67
2022/06/13 07:43:17;;;;;;;4.12;2.80;;;;;;;25.17;54.28;99317.92;1701797;82;21075;-66
2022/06/13 07:45:45;;;;;;;9.90;3.22;;;;;;;25.34;53.72;99315.24;1700003;82;21067;-65
2022/06/13 07:48:12;;;;;;;5.17;3.35;;;;;;;25.52;53.78;99310.74;1700242;82;21156;-67
2022/06/13 07:50:40;;;;;;;3.80;3.33;;;;;;;25.66;53.31;99315.34;1716970;82;21083;-68
2022/06/13 07:53:07;;;;;;;6.78;2.85;;;;;;;25.74;52.40;99310.39;1697455;82;21105;-65
2022/06/13 07:55:33;;;;;;;15.80;3.40;;;;;;;25.63;52.10;99312.78;1705096;84;21054;-66
2022/06/13 07:58:00;;;;;;;6.90;3.10;;;;;;;25.59;52.54;99309.19;1713986;82;21047;-64
2022/06/13 08:00:34;;;;;;;9.63;3.42;;;;;;;25.72;52.60;99314.25;1709409;82;22071;-65
2022/06/13 08:03:06;;;;;;;3.37;2.22;;;;;;;25.91;52.06;99308.48;1714685;82;21078;-66
2022/06/13 08:05:33;;;;;;;6.35;2.50;;;;;;;26.07;50.03;99300.70;1700839;82;21545;-65
2022/06/13 08:08:00;;;;;;;11.22;3.12;;;;;;;26.21;50.23;99299.64;1673161;83;21493;-66
2022/06/13 08:10:27;;;;;;;3.98;2.92;;;;;;;26.39;50.20;99295.70;1707797;82;21104;-65
2022/06/13 08:12:54;;;;;;;4.78;2.87;;;;;;;26.54;49.72;99296.80;1706097;83;21218;-65
2022/06/13 08:15:24;;;;;;;8.70;2.52;;;;;;;26.67;49.70;99291.26;1708683;83;21018;-68
2022/06/13 08:17:51;;;;;;;10.75;2.35;;;;;;;26.77;49.74;99295.11;1712679;83;21039;-66
2022/06/13 08:20:18;;;;;;;2.72;1.87;;;;;;;26.93;48.38;99294.33;1668603;85;21110;-65
2022/06/13 08:22:47;;;;;;;4.72;2.67;;;;;;;27.07;47.53;99300.30;1667928;84;21140;-66
2022/06/13 08:25:25;;;;;;;3.08;1.98;;;;;;;27.19;46.79;99298.17;1670753;84;21077;-66
2022/06/13 08:27:54;;;;;;;6.00;2.20;;;;;;;27.22;46.49;99290.25;1671341;85;21099;-67
2022/06/13 08:30:22;;;;;;;7.97;2.58;;;;;;;27.10;45.42;99292.34;1671824;85;21051;-66
2022/06/13 08:32:49;;;;;;;7.35;2.87;;;;;;;26.76;45.82;99287.23;1705746;83;21146;-66
2022/06/13 08:35:17;;;;;;;5.78;2.40;;;;;;;26.37;46.78;99281.98;1706720;82;21011;-66
2022/06/13 08:37:44;;;;;;;3.10;2.70;;;;;;;26.07;47.02;99285.19;1709220;82;21157;-64
2022/06/13 08:40:11;;;;;;;3.10;2.30;;;;;;;25.99;47.52;99287.36;1704473;82;21122;-67
2022/06/13 08:42:50;;;;;;;4.15;2.80;;;;;;;25.94;48.06;99285.64;1703503;82;21148;-67
2022/06/13 08:45:33;;;;;;;13.50;2.80;;;;;;;26.03;48.79;99288.70;1662872;85;21040;-65
2022/06/13 08:48:11;;;;;;;3.52;2.75;;;;;;;26.11;48.37;99286.53;1615709;86;21076;-67
2022/06/13 08:51:05;;;;;;;3.90;2.20;;;;;;;26.09;48.87;99284.75;1672401;85;21258;-64
2022/06/13 08:53:57;;;;;;;2.60;2.08;;;;;;;26.10;47.29;99287.14;1707205;83;21066;-66
2022/06/13 08:56:29;;;;;;;16.10;2.42;;;;;;;25.99;46.40;99284.55;1667652;85;21083;-67
2022/06/13 08:59:22;;;;;;;6.67;2.33;;;;;;;25.90;47.08;99284.30;1651698;86;21057;-67
2022/06/13 09:01:36;;;;;;;5.92;2.58;;;;;;;25.86;48.09;99292.83;1653563;85;21079;-65
2022/06/13 09:04:18;;;;;;;2.75;2.40;;;;;;;25.81;48.47;99279.22;1655559;85;21158;-65
2022/06/13 09:06:55;;;;;;;3.80;2.47;;;;;;;25.77;49.22;99275.68;1676870;82;21058;-66
2022/06/13 09:09:43;;;;;;;3.95;2.33;;;;;;;25.88;50.48;99264.18;1706680;83;21016;-66
2022/06/13 09:12:29;;;;;;;3.55;2.10;;;;;;;26.10;50.77;99265.97;1753714;81;21055;-67
2022/06/13 09:15:06;;;;;;;4.72;3.00;;;;;;;26.32;49.72;99264.75;1755944;81;21145;-65
2022/06/13 09:17:56;;;;;;;2.67;2.25;;;;;;;26.45;47.45;99261.47;1759836;81;21268;-64
2022/06/13 09:20:38;;;;;;;5.58;2.20;;;;;;;26.63;47.94;99251.02;1756682;81;21142;-67
2022/06/13 09:23:25;;;;;;;3.72;2.08;;;;;;;26.77;46.26;99256.33;1739286;81;21906;-66
2022/06/13 09:26:19;;;;;;;6.30;2.60;;;;;;;26.87;47.33;99258.72;1756799;81;20976;-66
2022/06/13 09:29:06;;;;;;;3.90;2.20;;;;;;;27.04;46.38;99265.22;1753799;81;21626;-69
2022/06/13 09:31:46;;;;;;;4.92;2.80;;;;;;;27.02;46.14;99259.81;1755848;81;21528;-69
2022/06/13 09:34:24;;;;;;;5.90;2.75;;;;;;;27.09;46.22;99263.92;1718536;81;21119;-63
2022/06/13 09:37:14;;;;;;;9.70;2.70;;;;;;;27.08;46.36;99265.13;1742290;81;21036;-66
2022/06/13 09:39:42;;;;;;;7.60;3.12;;;;;;;27.16;46.77;99265.13;1742006;81;21556;-66
2022/06/13 09:42:40;;;;;;;3.47;2.02;;;;;;;27.29;45.34;99261.61;1757159;81;21023;-65
2022/06/13 09:45:22;;;;;;;5.35;2.25;;;;;;;27.43;45.33;99257.62;1752463;81;21186;-66
2022/06/13 09:48:20;;;;;;;6.45;2.30;;;;;;;27.68;45.25;99265.46;1752438;81;21054;-65
2022/06/13 09:51:38;;;;;;;10.45;2.67;;;;;;;27.76;43.56;99253.34;1746228;81;21036;-66
2022/06/13 09:54:54;;;;;;;14.85;2.22;;;;;;;27.81;44.57;99255.64;1750788;81;21489;-64
2022/06/13 09:57:51;;;;;;;2.25;2.00;;;;;;;27.95;43.49;99250.81;1723321;81;21161;-66
2022/06/13 10:00:26;;;;;;;2.80;1.92;;;;;;;28.02;42.86;99253.45;1748735;81;21160;-64
2022/06/13 10:03:36;;;;;;;4.37;2.10;;;;;;;28.05;42.83;99257.41;1708097;82;21056;-67
2022/06/13 10:06:19;;;;;;;5.95;2.35;;;;;;;28.05;42.81;99256.00;1721245;81;21028;-66
2022/06/13 10:09:15;;;;;;;4.53;1.60;;;;;;;27.81;43.15;99257.66;1746816;81;21031;-65
2022/06/13 10:11:48;;;;;;;4.70;1.80;;;;;;;27.63;41.93;99252.47;1750820;81;21566;-65
2022/06/13 10:14:41;;;;;;;2.30;1.50;;;;;;;27.51;41.46;99252.57;1750578;81;21056;-64
2022/06/13 10:17:38;;;;;;;3.12;2.08;;;;;;;27.44;41.25;99251.53;1747617;81;21092;-64
2022/06/13 10:20:26;;;;;;;4.97;2.27;;;;;;;27.25;41.60;99247.56;1752456;81;21008;-64
2022/06/13 10:23:19;;;;;;;3.30;2.30;;;;;;;27.03;41.50;99258.59;1699844;81;21063;-64
2022/06/13 10:26:10;;;;;;;2.10;1.87;;;;;;;26.77;42.74;99253.50;1738292;81;20989;-65
2022/06/13 10:28:55;;;;;;;3.25;2.22;;;;;;;26.71;42.59;99244.77;1748616;81;21280;-64
2022/06/13 10:31:58;;;;;;;4.90;2.02;;;;;;;26.70;42.00;99240.34;1744918;81;21109;-63
2022/06/13 10:35:08;;;;;;;2.62;2.12;;;;;;;26.73;41.54;99222.51;1708621;81;21078;-64
2022/06/13 10:37:57;;;;;;;4.90;2.37;;;;;;;26.89;41.20;99230.02;1738214;81;21094;-64
2022/06/13 10:40:28;;;;;;;2.77;2.22;;;;;;;27.15;41.51;99233.07;1740085;81;21052;-66
2022/06/13 10:42:54;;;;;;;2.58;1.65;;;;;;;27.31;42.21;99233.05;1743351;81;21100;-63
2022/06/13 10:45:23;;;;;;;8.10;2.47;;;;;;;27.30;40.85;99228.66;1750129;81;21052;-66
2022/06/13 10:47:59;;;;;;;6.20;1.98;;;;;;;27.19;40.21;99231.73;1735821;81;21028;-66
2022/06/13 10:50:36;;;;;;;2.30;2.08;;;;;;;27.11;42.00;99224.67;1751738;81;21015;-66
2022/06/13 10:53:07;;;;;;;3.55;2.00;;;;;;;26.97;41.45;99226.59;1745539;81;21562;-63
2022/06/13 10:55:39;;;;;;;2.33;1.77;;;;;;;26.93;42.66;99225.09;1758675;81;22838;-63
2022/06/13 10:58:30;;;;;;;2.95;1.95;;;;;;;27.02;42.42;99221.66;1753971;81;21023;-64
2022/06/13 11:01:17;;;;;;;2.27;1.87;;;;;;;27.13;42.23;99219.38;1745754;81;21075;-65
2022/06/13 11:04:08;;;;;;;3.67;1.90;;;;;;;27.25;43.53;99217.07;1745360;81;21064;-65
2022/06/13 11:06:44;;;;;;;2.20;1.82;;;;;;;27.24;42.26;99216.30;1748250;81;21373;-64
2022/06/13 11:09:27;;;;;;;2.47;1.90;;;;;;;27.24;43.79;99212.06;1744939;81;21023;-64
2022/06/13 11:11:57;;;;;;;3.50;1.75;;;;;;;27.36;42.34;99213.37;1754353;81;21298;-63
2022/06/13 11:14:37;;;;;;;11.35;1.80;;;;;;;27.51;43.06;99214.39;1727019;81;21043;-64
2022/06/13 11:22:42;;;;;;;3.17;1.87;;;;;;;27.76;42.14;99203.83;1755368;81;21280;-64
2022/06/13 11:25:18;;;;;;;3.60;2.02;;;;;;;27.76;40.62;99207.27;1743817;81;21006;-65
2022/06/13 11:28:01;;;;;;;5.42;1.65;;;;;;;27.65;40.41;99211.80;1759867;81;21086;-64
2022/06/13 11:30:37;;;;;;;2.22;1.60;;;;;;;27.46;39.74;99215.13;1753198;81;21004;-64
2022/06/13 11:33:26;;;;;;;2.45;1.77;;;;;;;27.27;39.37;99207.53;1729667;81;21062;-66
2022/06/13 11:36:04;;;;;;;2.00;1.80;;;;;;;27.07;39.66;99209.86;1754826;81;21164;-63
2022/06/13 11:38:39;;;;;;;1.60;1.37;;;;;;;27.02;39.38;99210.36;1749840;81;21071;-64
2022/06/13 11:41:22;;;;;;;2.27;1.67;;;;;;;26.91;39.02;99212.02;1748886;81;21031;-63
2022/06/13 11:44:08;;;;;;;2.02;1.72;;;;;;;26.81;39.13;99209.64;1754339;81;21015;-65
2022/06/13 11:46:58;;;;;;;4.28;1.72;;;;;;;26.72;39.57;99209.63;1713189;81;21075;-64
2022/06/13 11:49:38;;;;;;;3.37;1.40;;;;;;;26.73;39.78;99199.13;1732092;81;21846;-65
2022/06/13 11:53:35;;;;;;;5.37;2.00;;;;;;;26.77;41.33;99206.12;1754707;81;21457;-65
2022/06/13 11:54:57;;;;;;;3.47;1.67;;;;;;;26.89;42.51;99200.36;1750150;81;21566;-65
2022/06/13 11:57:39;;;;;;;4.25;1.60;;;;;;;27.01;42.24;99200.27;1754726;81;21554;-66
2022/06/13 12:00:12;;;;;;;2.45;1.75;;;;;;;27.09;41.16;99196.09;1755558;81;21090;-65
2022/06/13 12:02:53;;;;;;;3.43;1.37;;;;;;;27.12;40.47;99190.15;1742398;81;21749;-64
2022/06/13 12:05:32;;;;;;;2.25;1.77;;;;;;;27.06;38.74;99187.86;1747863;81;21455;-65
2022/06/13 12:08:05;;;;;;;2.67;1.42;;;;;;;27.10;39.87;99184.33;1755989;81;21313;-64
2022/06/13 12:10:36;;;;;;;2.72;1.47;;;;;;;27.20;41.04;99183.88;1741349;81;21019;-64
2022/06/13 12:13:15;;;;;;;1.82;1.47;;;;;;;27.28;39.38;99179.45;1750721;81;21082;-65
2022/06/13 12:15:47;;;;;;;2.37;1.50;;;;;;;27.35;40.65;99173.59;1755969;81;21868;-65
2022/06/13 12:18:23;;;;;;;4.83;1.92;;;;;;;27.41;40.92;99175.27;1750473;81;21004;-64
2022/06/13 12:21:13;;;;;;;14.40;2.00;;;;;;;27.43;40.04;99167.91;1744632;81;21036;-64
2022/06/13 12:23:47;;;;;;;4.60;1.80;;;;;;;27.46;41.25;99167.05;1739985;81;21056;-67
2022/06/13 12:26:22;;;;;;;4.08;2.30;;;;;;;27.48;41.13;99170.03;1697230;84;21552;-70
2022/06/13 12:29:33;;;;;;;3.05;1.82;;;;;;;27.45;40.61;99164.64;1681813;82;21087;-67
2022/06/13 12:32:23;;;;;;;4.25;2.42;;;;;;;27.40;40.73;99162.37;1697652;82;21514;-69
2022/06/13 12:35:15;;;;;;;2.25;2.00;;;;;;;27.48;41.52;99153.06;1700472;84;21303;-65